Airfield :
LOGIN :

Register | Disclaimer

   EN    FR    IT 

 










Legend :    VFR   Marginal VFR   IFR   Intensive IFR   Very Intensive IFR
Visi :
Ceiling :
>= 8 km
>= 3000ft
5 to 8 km
1000 to 3000 ft
1500m to 5 km
500 to 1000 ft
800 to 1500m
200 to 500 ft
< 800m
< 200 ft
Symbols :   Thunderstorms  Fog  Heavy snow  Heavy precipitations  Wind > 20 kt
SIGMETs :     Misc.  Thunderstorms  Icing  Turbulence  Mountain Waves  Volcanic Ashes







- Airport Elevation : 645 ft
- IATA code : DLE
- Download approach charts


LFGJ - Dole Tavaux

CURRENT METAR :
  • 170530Z AUTO VRB01KT CAVOK 18/17 Q1020 NOSIG

EXPIRED METARs :
  • 170500Z AUTO 00000KT CAVOK 17/17 Q1020 NOSIG
  • 170430Z AUTO 13003KT CAVOK 17/16 Q1019 NOSIG
  • 170400Z AUTO 08002KT CAVOK 18/17 Q1019 NOSIG
  • 170330Z AUTO 16002KT 9999 FEW046 BKN056 BKN066 18/17 Q1019 NOSIG
  • 170300Z AUTO 14003KT 9999 BKN049 OVC062 18/17 Q1019 NOSIG

TAF TAF LFGJ
Valid from the 17 at 06:00 until the 17 at 15:00 UTC


170500Z 1706/1715 VRB03KT CAVOK
BECMG 1710/1713 24010KT
No reported NOTAMs for that airfield.



MET'MAP, your aeronautical weather chart ! - Copyright ORBIFLY December 2007 - Disclaimer

ORBIFLY MET'MAP TEAM :

Programming & Development : Alexandra Zaïnal
Concept & Development : Baudouin d'Aumeries
Co-Development & Prog : Marc-Olivier Méhu
Technical & hardware support : Manuel Goepfert

Contact : metmap@orbifly.com




SOURCES & CREDITS :

   NOAA